Flight Track Log - Related Links

Times and Time Zones

All times are in EST time to prevent confusion due to time zone crossing. See the N400PU flight status page for this flight to view local times or setup timezone preferences in your user account.

Time Position Orientation Groundspeed Altitude Reporting Facility
EST Latitude Longitude Course Direction KTS MPH feet Rate Location/Type
Tue 07:29:19 AM 40.4378 -87.0183 291° West 201 231 3,600  Level Chicago Center
Tue 07:30:20 AM 40.4633 -87.0978 293° West 235 270 6,100 2,656 Climbing Chicago Center
Tue 07:31:00 AM 40.5870 -87.5059 290° West  Level Estimated
Tue 07:31:21 AM 40.4864 -87.1764 291° West 231 266 9,000  Level Chicago Center
Tue 07:32:00 AM 40.6151 -87.6014 291° West  Level FlightAware Approximate
Tue 07:32:23 AM 40.5131 -87.2592 293° West 242 278 10,600  Level Chicago Center
Tue 07:33:00 AM 40.6430 -87.6970 291° West  Level FlightAware Approximate
Tue 07:33:24 AM 40.5419 -87.3519 292° West 270 311 12,400  Level Chicago Center
Tue 07:34:00 AM 40.6709 -87.7927 291° West  Level FlightAware Approximate
Tue 07:34:25 AM 40.5717 -87.4486 292° West 283 326 14,300  Level Chicago Center
Tue 07:35:26 AM 40.6072 -87.5647 292° West 287 330 16,000 1,525 Climbing Chicago Center
Tue 07:36:27 AM 40.6392 -87.6725 291° West 313 360 17,400 1,574 Climbing Chicago Center
Tue 07:37:28 AM 40.6725 -87.7831 292° West 324 373 19,200 1,279 Climbing Chicago Center
Tue 07:38:29 AM 40.7067 -87.8961 292° West 331 381 20,000 -49 Climbing Chicago Center
Tue 07:39:31 AM 40.7411 -88.0122 291° West 339 390 19,100 -976 Descending Chicago Center
Tue 07:40:32 AM 40.7753 -88.1264 292° West 336 387 18,000 -541 Descending Chicago Center
Tue 07:41:33 AM 40.8086 -88.2386 291° West 329 379 18,000  Level Chicago Center
Tue 07:42:34 AM 40.8431 -88.3556 291° West 339 390 18,000  Level Chicago Center
Tue 07:43:35 AM 40.8769 -88.4725 291° West 340 391 18,000  Level Chicago Center
Tue 07:44:37 AM 40.9108 -88.5889 291° West 338 389 18,000  Level Chicago Center
Tue 07:45:38 AM 40.9450 -88.7036 292° West 336 387 18,000  Level Chicago Center
Tue 07:46:39 AM 40.9789 -88.8192 291° West 335 386 18,000  Level Chicago Center
Tue 07:47:41 AM 41.0186 -88.9589 291° West 336 387 18,000 -146 Level Chicago Center
Tue 07:48:42 AM 41.0514 -89.0756 290° West 336 387 17,700 -590 Descending Chicago Center
Tue 07:49:43 AM 41.0856 -89.1906 292° West 335 386 16,800 -976 Descending Chicago Center
Tue 07:50:45 AM 41.1169 -89.3061 290° West 331 381 15,700 -1,122 Descending Chicago Center
Tue 07:51:46 AM 41.1500 -89.4217 291° West 334 384 14,500 -1,366 Descending Chicago Center
Tue 07:52:48 AM 41.1814 -89.5333 291° West 332 382 12,900 -1,512 Descending Chicago Center
Tue 07:53:49 AM 41.2106 -89.6383 290° West 320 368 11,400 -878 Descending Chicago Center
Tue 07:54:51 AM 41.2394 -89.7428 290° West 311 358 11,100 -195 Descending Chicago Center
Tue 07:55:52 AM 41.2733 -89.8456 294° West 307 353 11,000 -244 Descending Chicago Center
Tue 07:56:54 AM 41.3125 -89.9633 294° West 297 342 10,600 -1,073 Descending Chicago Center
Tue 07:57:55 AM 41.3381 -90.0406 294° West 259 298 8,800 -1,805 Descending Chicago Center
Tue 07:58:57 AM 41.3628 -90.1214 292° West 242 278 6,900 -1,854 Descending Chicago Center
Tue 07:59:58 AM 41.3889 -90.1986 294° West 236 272 5,000 -1,707 Descending Chicago Center
Tue 08:01:00 AM 41.4122 -90.2717 293° West 227 261 3,400 -1,016 Descending Chicago Center
Tue 08:02:02 AM 41.4303 -90.3269 294° West 190 219 2,900 -585 Descending Chicago Center
Tue 08:03:03 AM 41.4456 -90.3667 297° West 146 168 2,200 -537 Descending Chicago Center
Tue 08:04:05 AM 41.4472 -90.4114 273° West 115 132 1,800 -435 Descending Chicago Center
Tue 08:05:07 AM 41.4481 -90.4469 272° West 107 123 1,300 -484 Descending Chicago Center

Login

Don't have an account? Register now (free) for customized features, flight alerts, and more!